Time;durP1;ratioP1;P1;durP2;ratioP2;P2;SDS_P1;SDS_P2;PMS_P1;PMS_P2;Temp;Humidity;BMP_temperature;BMP_pressure;BME280_temperature;BME280_humidity;BME280_pressure;Samples;Min_cycle;Max_cycle;Signal;HPM_P1;HPM_P2
2021/12/15 00:01:21;;;;;;;72.82;29.80;;;;;;;;;;5011756;28;20058;-66
2021/12/15 00:03:48;;;;;;;68.05;28.45;;;;;;;;;;5011515;28;20040;-66
2021/12/15 00:06:18;;;;;;;69.55;30.45;;;;;;;;;;5010914;28;20665;-66
2021/12/15 00:08:45;;;;;;;70.78;29.45;;;;;;;;;;5011170;28;20061;-66
2021/12/15 00:11:12;;;;;;;68.68;30.05;;;;;;;;;;5011668;28;20120;-66
2021/12/15 00:13:39;;;;;;;72.05;28.83;;;;;;;;;;5010895;28;20037;-66
2021/12/15 00:16:06;;;;;;;69.78;30.02;;;;;;;;;;5011274;28;20046;-66
2021/12/15 00:18:32;;;;;;;70.45;31.65;;;;;;;;;;5011457;28;20040;-66
2021/12/15 00:20:59;;;;;;;71.65;29.88;;;;;;;;;;5010850;28;20085;-66
2021/12/15 00:23:25;;;;;;;67.63;30.88;;;;;;;;;;5011413;28;20033;-66
2021/12/15 00:25:51;;;;;;;73.28;30.73;;;;;;;;;;5011438;28;20377;-66
2021/12/15 00:28:17;;;;;;;71.93;29.05;;;;;;;;;;5010270;28;20061;-66
2021/12/15 00:30:43;;;;;;;64.13;28.95;;;;;;;;;;5011256;28;20049;-66
2021/12/15 00:33:10;;;;;;;70.65;29.55;;;;;;;;;;5011331;28;20033;-66
2021/12/15 00:35:36;;;;;;;71.45;29.60;;;;;;;;;;5010767;28;20045;-66
2021/12/15 00:38:03;;;;;;;60.45;27.23;;;;;;;;;;5015013;28;20042;-66
2021/12/15 00:40:29;;;;;;;69.68;28.27;;;;;;;;;;5014940;28;20042;-66
2021/12/15 00:42:55;;;;;;;65.20;29.38;;;;;;;;;;5014210;28;20060;-66
2021/12/15 00:45:21;;;;;;;74.55;30.25;;;;;;;;;;5014968;28;20048;-66
2021/12/15 00:47:47;;;;;;;68.85;28.92;;;;;;;;;;5014626;28;20449;-66
2021/12/15 00:50:15;;;;;;;66.30;28.83;;;;;;;;;;5014118;28;20096;-66
2021/12/15 00:52:43;;;;;;;77.32;31.17;;;;;;;;;;5014689;28;20042;-66
2021/12/15 00:55:10;;;;;;;74.70;31.00;;;;;;;;;;5014650;28;20053;-66
2021/12/15 00:57:37;;;;;;;65.82;28.50;;;;;;;;;;5013875;28;20042;-66
2021/12/15 01:00:09;;;;;;;62.53;27.75;;;;;;;;;;5014626;28;20045;-66
2021/12/15 01:02:35;;;;;;;63.60;26.80;;;;;;;;;;5014503;28;20038;-66
2021/12/15 01:05:01;;;;;;;61.13;27.77;;;;;;;;;;5013548;28;20057;-66
2021/12/15 01:07:27;;;;;;;66.07;27.55;;;;;;;;;;5014325;28;20388;-66
2021/12/15 01:09:56;;;;;;;59.65;27.17;;;;;;;;;;5014371;28;20500;-66
2021/12/15 01:14:26;;;;;;;64.03;28.17;;;;;;;;;;5013491;28;20050;-66
2021/12/15 01:20:42;;;;;;;60.33;28.80;;;;;;;;;;5013436;28;20131;-66
2021/12/15 01:23:12;;;;;;;67.07;28.50;;;;;;;;;;5013880;28;20073;-66
2021/12/15 01:25:42;;;;;;;62.95;28.00;;;;;;;;;;5014013;28;20045;-66
2021/12/15 01:28:08;;;;;;;64.63;27.02;;;;;;;;;;5012938;28;20082;-66
2021/12/15 01:30:37;;;;;;;74.95;29.75;;;;;;;;;;5013849;28;20440;-66
2021/12/15 01:33:03;;;;;;;67.35;28.40;;;;;;;;;;5013947;28;20465;-66
2021/12/15 01:35:30;;;;;;;65.97;28.38;;;;;;;;;;5013250;28;20384;-66
2021/12/15 01:37:57;;;;;;;69.10;28.45;;;;;;;;;;5013949;28;20038;-66
2021/12/15 01:40:34;;;;;;;67.25;29.20;;;;;;;;;;5013442;28;20053;-66
2021/12/15 01:43:17;;;;;;;75.38;29.75;;;;;;;;;;5013124;28;20045;-66
2021/12/15 01:48:29;;;;;;;68.78;26.90;;;;;;;;;;5012632;28;20048;-66
2021/12/15 01:50:55;;;;;;;71.38;28.67;;;;;;;;;;5013589;28;20040;-66
2021/12/15 01:53:21;;;;;;;69.85;28.70;;;;;;;;;;5013598;28;20042;-66
2021/12/15 01:55:49;;;;;;;71.55;28.50;;;;;;;;;;5013319;28;20076;-66
2021/12/15 01:58:15;;;;;;;71.93;28.60;;;;;;;;;;5013125;28;20046;-66
2021/12/15 02:00:49;;;;;;;78.85;29.23;;;;;;;;;;5013419;28;20046;-66
2021/12/15 02:03:16;;;;;;;77.10;29.65;;;;;;;;;;4995007;28;20124;-66
2021/12/15 02:05:42;;;;;;;77.70;29.40;;;;;;;;;;5013267;28;20069;-66
2021/12/15 02:08:11;;;;;;;76.28;29.55;;;;;;;;;;5013277;28;20034;-66
2021/12/15 02:10:39;;;;;;;70.90;28.48;;;;;;;;;;5013007;28;20069;-66
2021/12/15 02:13:06;;;;;;;67.03;28.05;;;;;;;;;;5013026;28;20045;-66
2021/12/15 02:15:34;;;;;;;78.95;29.77;;;;;;;;;;5012743;28;20076;-66
2021/12/15 02:18:01;;;;;;;68.57;27.35;;;;;;;;;;5012910;28;20085;-66
2021/12/15 02:20:36;;;;;;;74.97;28.73;;;;;;;;;;5012675;28;20065;-66
2021/12/15 02:23:04;;;;;;;76.10;28.48;;;;;;;;;;5012975;28;20042;-66
2021/12/15 02:25:30;;;;;;;73.95;28.65;;;;;;;;;;4994834;28;20044;-66
2021/12/15 02:27:56;;;;;;;73.95;27.65;;;;;;;;;;5012580;28;20050;-66
2021/12/15 02:38:34;;;;;;;72.40;28.08;;;;;;;;;;5012440;28;20089;-66
2021/12/15 02:41:07;;;;;;;54.47;22.30;;;;;;;;;;5011894;28;20088;-66
2021/12/15 02:43:34;;;;;;;68.85;27.90;;;;;;;;;;5012549;28;20065;-66
2021/12/15 02:46:00;;;;;;;69.68;28.25;;;;;;;;;;4994950;28;20084;-66
2021/12/15 02:48:26;;;;;;;73.78;29.05;;;;;;;;;;5011858;28;20042;-66
2021/12/15 02:50:52;;;;;;;77.47;28.27;;;;;;;;;;5012741;28;20104;-66
2021/12/15 02:53:18;;;;;;;75.03;28.02;;;;;;;;;;5012406;28;20384;-66
2021/12/15 02:55:44;;;;;;;76.22;29.50;;;;;;;;;;5011589;28;20080;-66
2021/12/15 02:58:11;;;;;;;85.57;29.38;;;;;;;;;;5012142;28;20404;-66
2021/12/15 03:00:53;;;;;;;76.68;27.58;;;;;;;;;;5011937;28;20541;-66
2021/12/15 03:04:01;;;;;;;75.80;29.85;;;;;;;;;;5011642;28;20520;-66
2021/12/15 03:06:26;;;;;;;83.35;30.50;;;;;;;;;;5011726;28;20044;-66
2021/12/15 03:09:08;;;;;;;81.70;30.02;;;;;;;;;;5012176;28;20142;-66
2021/12/15 03:15:29;;;;;;;79.85;30.40;;;;;;;;;;5012148;28;20583;-66
2021/12/15 03:17:20;;;;;;;93.53;30.60;;;;;;;;;;5010958;28;20048;-66
2021/12/15 03:19:46;;;;;;;82.05;30.92;;;;;;;;;;5011979;28;20449;-66
2021/12/15 03:22:12;;;;;;;86.85;30.85;;;;;;;;;;5012039;28;20038;-66
2021/12/15 03:24:38;;;;;;;87.45;32.33;;;;;;;;;;5011682;28;20485;-66
2021/12/15 03:27:11;;;;;;;82.78;31.95;;;;;;;;;;5011398;28;20042;-66
2021/12/15 03:37:39;;;;;;;85.75;30.50;;;;;;;;;;5011634;28;20049;-66
2021/12/15 03:40:08;;;;;;;82.63;31.20;;;;;;;;;;5011192;28;20149;-66
2021/12/15 03:42:36;;;;;;;85.90;31.95;;;;;;;;;;5011715;28;20876;-66
2021/12/15 03:45:05;;;;;;;81.95;31.33;;;;;;;;;;5011840;28;20183;-66
2021/12/15 03:47:32;;;;;;;88.07;32.15;;;;;;;;;;5011131;28;20037;-66
2021/12/15 03:50:03;;;;;;;86.28;31.48;;;;;;;;;;5012066;28;20061;-66
2021/12/15 03:52:30;;;;;;;90.60;33.33;;;;;;;;;;5011426;28;20048;-66
2021/12/15 03:54:56;;;;;;;82.80;30.52;;;;;;;;;;5011132;28;20488;-66
2021/12/15 03:57:22;;;;;;;91.90;35.08;;;;;;;;;;5011783;28;20073;-66
2021/12/15 03:59:48;;;;;;;85.93;33.85;;;;;;;;;;5011687;28;20529;-66
2021/12/15 04:02:15;;;;;;;84.45;34.42;;;;;;;;;;5010678;28;20826;-66
2021/12/15 04:04:42;;;;;;;85.18;32.97;;;;;;;;;;5011672;28;20136;-66
2021/12/15 04:07:08;;;;;;;83.22;34.17;;;;;;;;;;5011426;28;20056;-66
2021/12/15 04:09:35;;;;;;;86.28;34.88;;;;;;;;;;5010899;28;20092;-66
2021/12/15 04:12:01;;;;;;;88.45;34.10;;;;;;;;;;5015492;28;20045;-66
2021/12/15 04:14:34;;;;;;;85.35;34.75;;;;;;;;;;5015417;28;20037;-66
2021/12/15 04:17:06;;;;;;;92.40;35.75;;;;;;;;;;5014862;28;20045;-66
2021/12/15 04:19:34;;;;;;;79.85;33.35;;;;;;;;;;5015086;28;20042;-66
2021/12/15 04:22:00;;;;;;;85.80;34.20;;;;;;;;;;5015247;28;20037;-66
2021/12/15 04:24:27;;;;;;;91.97;35.65;;;;;;;;;;5014742;28;20077;-66
2021/12/15 04:26:54;;;;;;;82.85;34.97;;;;;;;;;;5014912;28;20046;-66
2021/12/15 04:29:21;;;;;;;90.82;34.25;;;;;;;;;;5014656;28;20060;-66
2021/12/15 04:31:53;;;;;;;91.93;37.13;;;;;;;;;;5013701;28;20054;-66
2021/12/15 04:34:19;;;;;;;97.40;37.25;;;;;;;;;;5015155;28;20049;-66
2021/12/15 04:36:47;;;;;;;83.57;35.13;;;;;;;;;;4997516;28;20068;-66
2021/12/15 04:39:17;;;;;;;90.65;36.97;;;;;;;;;;5014274;28;20388;-66
2021/12/15 04:41:48;;;;;;;85.60;35.80;;;;;;;;;;5014872;28;20034;-66
2021/12/15 04:44:15;;;;;;;93.22;37.58;;;;;;;;;;5014556;28;20045;-66
2021/12/15 04:46:46;;;;;;;91.63;36.03;;;;;;;;;;5014008;28;20038;-66
2021/12/15 04:49:14;;;;;;;91.22;36.45;;;;;;;;;;5014882;28;20037;-66
2021/12/15 04:51:40;;;;;;;98.43;38.65;;;;;;;;;;5014496;28;20037;-66
2021/12/15 04:54:06;;;;;;;79.80;34.38;;;;;;;;;;5014047;28;20052;-66
2021/12/15 04:56:32;;;;;;;93.45;37.45;;;;;;;;;;5014733;28;20420;-66
2021/12/15 04:58:58;;;;;;;88.35;37.25;;;;;;;;;;5014447;28;20042;-66
2021/12/15 05:01:25;;;;;;;87.43;36.78;;;;;;;;;;5013708;28;20050;-66
2021/12/15 05:03:52;;;;;;;89.93;38.30;;;;;;;;;;5014525;28;20038;-66
2021/12/15 05:06:18;;;;;;;86.43;35.63;;;;;;;;;;5014525;28;20180;-66
2021/12/15 05:08:44;;;;;;;92.03;37.90;;;;;;;;;;5013866;28;20490;-66
2021/12/15 05:11:12;;;;;;;93.28;38.92;;;;;;;;;;5014517;28;20044;-66
2021/12/15 05:13:38;;;;;;;95.63;39.88;;;;;;;;;;5014191;28;20476;-66
2021/12/15 05:16:05;;;;;;;89.68;37.88;;;;;;;;;;5013589;28;20041;-66
2021/12/15 05:18:31;;;;;;;85.80;37.08;;;;;;;;;;5014126;28;20113;-66
2021/12/15 05:20:59;;;;;;;85.25;37.15;;;;;;;;;;5013825;28;20140;-66
2021/12/15 05:23:29;;;;;;;89.65;38.05;;;;;;;;;;5012644;28;20053;-66
2021/12/15 05:25:56;;;;;;;89.82;38.75;;;;;;;;;;5013981;28;20041;-66
2021/12/15 05:28:22;;;;;;;94.13;38.45;;;;;;;;;;5013717;28;20536;-66
2021/12/15 05:30:48;;;;;;;85.60;36.72;;;;;;;;;;5013280;28;20112;-66
2021/12/15 05:33:14;;;;;;;91.10;38.53;;;;;;;;;;5013633;28;20042;-66
2021/12/15 05:35:40;;;;;;;90.40;37.47;;;;;;;;;;5013951;28;20105;-66
2021/12/15 05:38:07;;;;;;;92.68;39.25;;;;;;;;;;5013289;28;20049;-66
2021/12/15 05:40:33;;;;;;;87.10;37.30;;;;;;;;;;4996123;28;20768;-66
2021/12/15 05:43:00;;;;;;;95.82;40.63;;;;;;;;;;5013601;28;20099;-66
2021/12/15 05:45:27;;;;;;;92.05;38.28;;;;;;;;;;5012926;28;20125;-66
2021/12/15 05:47:54;;;;;;;88.53;37.17;;;;;;;;;;5013698;28;20043;-66
2021/12/15 05:50:20;;;;;;;87.65;37.50;;;;;;;;;;5013805;28;20042;-66
2021/12/15 05:52:47;;;;;;;86.40;37.72;;;;;;;;;;5012527;28;20053;-66
2021/12/15 05:55:13;;;;;;;90.65;38.53;;;;;;;;;;5013578;28;20045;-66
2021/12/15 05:57:40;;;;;;;88.68;38.58;;;;;;;;;;5013459;28;20053;-66
2021/12/15 06:00:13;;;;;;;90.15;39.13;;;;;;;;;;5012651;28;20073;-66
2021/12/15 06:02:39;;;;;;;91.07;37.65;;;;;;;;;;5013484;28;20448;-66
2021/12/15 06:05:06;;;;;;;94.88;39.65;;;;;;;;;;5013437;28;20444;-66
2021/12/15 06:07:32;;;;;;;84.72;36.67;;;;;;;;;;5012615;28;20040;-66
2021/12/15 06:09:58;;;;;;;85.78;39.00;;;;;;;;;;5013258;28;20045;-66
2021/12/15 06:12:24;;;;;;;89.50;39.20;;;;;;;;;;5012862;28;20057;-66
2021/12/15 06:14:51;;;;;;;90.35;40.65;;;;;;;;;;5012937;28;20037;-66
2021/12/15 06:17:17;;;;;;;94.32;39.25;;;;;;;;;;5013053;28;20453;-66
2021/12/15 06:19:43;;;;;;;93.55;38.78;;;;;;;;;;5012879;28;20052;-66
2021/12/15 06:22:11;;;;;;;81.60;36.45;;;;;;;;;;5012913;28;20041;-66
2021/12/15 06:24:38;;;;;;;97.53;40.58;;;;;;;;;;5012601;28;20053;-66
2021/12/15 06:27:15;;;;;;;88.47;40.50;;;;;;;;;;4995263;28;20124;-67
2021/12/15 06:29:41;;;;;;;92.15;38.10;;;;;;;;;;5011915;28;20536;-67
2021/12/15 06:32:07;;;;;;;84.65;37.53;;;;;;;;;;5012726;28;20065;-67
2021/12/15 06:34:33;;;;;;;86.32;36.65;;;;;;;;;;5012517;28;20038;-67
2021/12/15 06:37:00;;;;;;;94.07;39.97;;;;;;;;;;4994706;28;20088;-67
2021/12/15 06:39:26;;;;;;;89.55;38.45;;;;;;;;;;5012202;28;20420;-66
2021/12/15 06:41:52;;;;;;;85.82;36.25;;;;;;;;;;5012110;28;20040;-66
2021/12/15 06:44:18;;;;;;;90.90;39.03;;;;;;;;;;5010873;28;20481;-66
2021/12/15 06:47:19;;;;;;;77.85;33.88;;;;;;;;;;5011803;28;20472;-66
2021/12/15 07:00:28;;;;;;;87.07;36.85;;;;;;;;;;5009646;28;20069;-66
2021/12/15 07:02:54;;;;;;;87.10;35.40;;;;;;;;;;5011609;28;20124;-67
2021/12/15 07:05:21;;;;;;;77.90;34.42;;;;;;;;;;5011812;28;20485;-66
2021/12/15 07:07:48;;;;;;;75.97;34.13;;;;;;;;;;5009662;28;20048;-66
2021/12/15 07:10:16;;;;;;;85.80;34.92;;;;;;;;;;5010328;28;20129;-66
2021/12/15 07:12:42;;;;;;;78.07;35.03;;;;;;;;;;5010785;28;20088;-66
2021/12/15 07:15:09;;;;;;;86.78;36.03;;;;;;;;;;5009392;28;20041;-66
2021/12/15 07:17:36;;;;;;;77.88;34.40;;;;;;;;;;5010789;28;20092;-66
2021/12/15 07:20:08;;;;;;;78.95;34.70;;;;;;;;;;5008338;28;20472;-66
2021/12/15 07:25:08;;;;;;;76.68;34.38;;;;;;;;;;5010468;28;20042;-67
2021/12/15 07:27:33;;;;;;;78.65;33.88;;;;;;;;;;4991420;28;20042;-66
2021/12/15 07:30:01;;;;;;;81.32;32.92;;;;;;;;;;5008165;28;20096;-66
2021/12/15 07:32:27;;;;;;;82.03;34.72;;;;;;;;;;5009954;28;20052;-66
2021/12/15 07:34:53;;;;;;;68.32;31.45;;;;;;;;;;5011138;28;20045;-67
2021/12/15 07:37:19;;;;;;;66.95;30.85;;;;;;;;;;5008614;28;20038;-65
2021/12/15 07:39:54;;;;;;;73.38;33.67;;;;;;;;;;5007963;28;20088;-66
2021/12/15 07:42:30;;;;;;;74.40;33.05;;;;;;;;;;5002194;28;20077;-66
2021/12/15 07:44:56;;;;;;;73.18;32.97;;;;;;;;;;5011797;28;20444;-66
2021/12/15 07:47:22;;;;;;;67.53;29.50;;;;;;;;;;5016839;28;20038;-67
2021/12/15 07:49:48;;;;;;;68.68;30.50;;;;;;;;;;5017311;28;20066;-67
2021/12/15 07:52:14;;;;;;;70.15;30.58;;;;;;;;;;5015704;28;20054;-67
2021/12/15 07:54:40;;;;;;;64.80;29.92;;;;;;;;;;5017078;28;20496;-66
2021/12/15 07:57:09;;;;;;;67.22;28.70;;;;;;;;;;5016793;28;20765;-67
2021/12/15 07:59:35;;;;;;;61.65;29.75;;;;;;;;;;5015821;28;20053;-67
2021/12/15 08:02:01;;;;;;;68.00;30.52;;;;;;;;;;5015746;28;20048;-66
2021/12/15 08:04:27;;;;;;;70.18;31.08;;;;;;;;;;5016717;28;20420;-66
2021/12/15 08:06:53;;;;;;;66.35;29.20;;;;;;;;;;5015670;28;20037;-66
2021/12/15 08:09:22;;;;;;;70.05;31.25;;;;;;;;;;5016004;28;20096;-66
2021/12/15 08:11:48;;;;;;;67.38;29.92;;;;;;;;;;5016478;28;20046;-66
2021/12/15 08:14:15;;;;;;;69.43;31.52;;;;;;;;;;5016070;28;20045;-66
2021/12/15 08:16:41;;;;;;;70.43;30.88;;;;;;;;;;5016322;28;20111;-66
2021/12/15 08:19:08;;;;;;;67.13;31.02;;;;;;;;;;5015982;28;20096;-67
2021/12/15 08:21:34;;;;;;;70.88;30.73;;;;;;;;;;5007743;28;20045;-65
2021/12/15 08:24:00;;;;;;;67.88;29.70;;;;;;;;;;4989021;28;20064;-65
2021/12/15 08:26:27;;;;;;;71.13;32.13;;;;;;;;;;4996825;28;20034;-65
2021/12/15 08:28:53;;;;;;;71.95;31.55;;;;;;;;;;5014593;28;20056;-66
2021/12/15 08:31:19;;;;;;;65.53;30.42;;;;;;;;;;4998987;28;20088;-64
2021/12/15 08:33:45;;;;;;;74.95;31.17;;;;;;;;;;5015779;28;20069;-65
2021/12/15 08:36:13;;;;;;;70.68;29.10;;;;;;;;;;5015437;28;20397;-65
2021/12/15 08:38:42;;;;;;;68.30;29.23;;;;;;;;;;5016566;28;20511;-65
2021/12/15 08:41:11;;;;;;;72.10;31.42;;;;;;;;;;5016174;28;20121;-65
2021/12/15 08:43:37;;;;;;;67.20;29.77;;;;;;;;;;5008602;28;20611;-65
2021/12/15 08:46:07;;;;;;;74.75;32.10;;;;;;;;;;5014537;28;20038;-65
2021/12/15 08:48:35;;;;;;;74.05;31.38;;;;;;;;;;5015529;28;20067;-65
2021/12/15 08:51:02;;;;;;;66.68;29.92;;;;;;;;;;5015638;28;20570;-65
2021/12/15 08:53:28;;;;;;;63.53;28.98;;;;;;;;;;5015026;28;20128;-65
2021/12/15 08:55:54;;;;;;;65.45;28.60;;;;;;;;;;5015289;28;20547;-65
2021/12/15 08:58:22;;;;;;;63.05;29.50;;;;;;;;;;5010532;28;20041;-66
2021/12/15 09:00:50;;;;;;;67.25;29.90;;;;;;;;;;5011205;28;20610;-66
2021/12/15 09:03:16;;;;;;;66.88;29.05;;;;;;;;;;5012766;28;20149;-65
2021/12/15 09:05:44;;;;;;;62.05;29.05;;;;;;;;;;5011787;28;20034;-66
2021/12/15 09:08:10;;;;;;;67.40;29.50;;;;;;;;;;5011431;28;20060;-65
2021/12/15 09:10:37;;;;;;;62.33;29.38;;;;;;;;;;5012006;28;20100;-66
2021/12/15 09:13:03;;;;;;;53.72;26.50;;;;;;;;;;5011679;28;20125;-67
2021/12/15 09:15:30;;;;;;;59.22;26.98;;;;;;;;;;5012326;28;20038;-66
2021/12/15 09:17:57;;;;;;;66.25;29.33;;;;;;;;;;4993710;28;20709;-66
2021/12/15 09:20:24;;;;;;;56.85;26.60;;;;;;;;;;5011484;28;20073;-67
2021/12/15 09:22:51;;;;;;;63.92;28.92;;;;;;;;;;5009745;28;20104;-66
2021/12/15 09:25:17;;;;;;;57.65;26.80;;;;;;;;;;5012669;28;20034;-67
2021/12/15 09:27:44;;;;;;;60.85;27.08;;;;;;;;;;4994757;28;20805;-67
2021/12/15 09:30:12;;;;;;;62.65;27.73;;;;;;;;;;5012550;28;20485;-66
2021/12/15 09:32:38;;;;;;;60.50;27.13;;;;;;;;;;5012457;28;20041;-66
2021/12/15 09:35:06;;;;;;;55.92;27.30;;;;;;;;;;5012238;28;20107;-66
2021/12/15 09:37:32;;;;;;;58.38;26.48;;;;;;;;;;5011068;28;20038;-68
2021/12/15 09:39:58;;;;;;;59.28;26.20;;;;;;;;;;5011939;28;20651;-69
2021/12/15 09:42:31;;;;;;;53.83;26.20;;;;;;;;;;5011495;28;20045;-66
2021/12/15 09:45:04;;;;;;;58.58;26.38;;;;;;;;;;5012053;28;20050;-65
2021/12/15 09:47:47;;;;;;;63.22;26.70;;;;;;;;;;5011550;28;20092;-65
2021/12/15 10:06:46;;;;;;;58.38;26.52;;;;;;;;;;5009184;28;20489;-65
2021/12/15 10:12:26;;;;;;;50.15;24.25;;;;;;;;;;5010480;28;20128;-65
2021/12/15 10:18:00;;;;;;;51.88;24.63;;;;;;;;;;5009168;28;20485;-65
2021/12/15 10:20:28;;;;;;;51.92;24.58;;;;;;;;;;5011121;28;20046;-65
2021/12/15 10:22:59;;;;;;;50.97;23.13;;;;;;;;;;4978085;28;20045;-66
2021/12/15 10:25:27;;;;;;;52.15;24.30;;;;;;;;;;5011329;28;20056;-65
2021/12/15 10:28:07;;;;;;;57.30;25.20;;;;;;;;;;4994776;28;20073;-66
2021/12/15 10:30:35;;;;;;;54.53;25.08;;;;;;;;;;4986982;28;20069;-66
2021/12/15 10:33:21;;;;;;;48.35;23.42;;;;;;;;;;4992231;28;20497;-66
2021/12/15 10:35:49;;;;;;;51.45;24.10;;;;;;;;;;4991386;28;20050;-65
2021/12/15 10:38:19;;;;;;;47.22;21.90;;;;;;;;;;4991347;28;20054;-65
2021/12/15 10:40:48;;;;;;;51.00;23.33;;;;;;;;;;4991904;28;20460;-66
2021/12/15 10:43:14;;;;;;;49.63;22.85;;;;;;;;;;4991447;28;20126;-65
2021/12/15 10:45:42;;;;;;;47.25;21.60;;;;;;;;;;4991185;28;20054;-64
2021/12/15 10:48:20;;;;;;;45.63;22.83;;;;;;;;;;4983798;28;20433;-66
2021/12/15 10:50:47;;;;;;;42.38;20.75;;;;;;;;;;4987987;28;20054;-67
2021/12/15 10:53:13;;;;;;;45.75;22.38;;;;;;;;;;4990692;28;20053;-64
2021/12/15 10:55:39;;;;;;;39.33;20.55;;;;;;;;;;4990429;28;20046;-66
2021/12/15 10:58:24;;;;;;;42.47;20.55;;;;;;;;;;4990682;28;20042;-65
2021/12/15 11:00:50;;;;;;;44.17;20.45;;;;;;;;;;4985506;28;20054;-64
2021/12/15 11:03:23;;;;;;;45.80;21.52;;;;;;;;;;4986641;28;20043;-64
2021/12/15 11:05:49;;;;;;;45.55;19.55;;;;;;;;;;4990640;28;20038;-64
2021/12/15 11:08:20;;;;;;;40.47;19.73;;;;;;;;;;4991903;28;20458;-66
2021/12/15 11:10:46;;;;;;;43.95;21.40;;;;;;;;;;4990951;28;20385;-66
2021/12/15 11:13:13;;;;;;;40.45;19.75;;;;;;;;;;4990643;28;20081;-65
2021/12/15 11:15:44;;;;;;;39.08;18.55;;;;;;;;;;4990543;28;20050;-65
2021/12/15 11:18:14;;;;;;;38.80;18.67;;;;;;;;;;4991235;28;20038;-66
2021/12/15 11:20:42;;;;;;;39.08;19.02;;;;;;;;;;4990384;28;20100;-65
2021/12/15 11:23:08;;;;;;;41.58;18.67;;;;;;;;;;4990957;28;20049;-66
2021/12/15 11:25:34;;;;;;;37.80;18.38;;;;;;;;;;4991021;28;20038;-65
2021/12/15 11:28:24;;;;;;;40.45;18.48;;;;;;;;;;4993931;28;20056;-67
2021/12/15 11:30:53;;;;;;;43.03;20.52;;;;;;;;;;4997646;28;20081;-64
2021/12/15 11:33:19;;;;;;;43.53;19.00;;;;;;;;;;4992682;28;20042;-64
2021/12/15 11:35:47;;;;;;;41.28;19.30;;;;;;;;;;4992702;28;20048;-66
2021/12/15 11:38:28;;;;;;;41.63;18.33;;;;;;;;;;5010710;28;20041;-65
2021/12/15 11:40:57;;;;;;;40.55;18.98;;;;;;;;;;5006497;28;20065;-65
2021/12/15 11:43:26;;;;;;;37.13;17.58;;;;;;;;;;5010559;28;20034;-65
2021/12/15 11:45:52;;;;;;;37.20;18.08;;;;;;;;;;4992736;28;20044;-65
2021/12/15 11:48:23;;;;;;;38.72;17.77;;;;;;;;;;5010699;28;20412;-65
2021/12/15 11:50:52;;;;;;;45.95;18.38;;;;;;;;;;5010750;28;20121;-64
2021/12/15 11:53:39;;;;;;;35.58;17.85;;;;;;;;;;5010240;28;21373;-65
2021/12/15 11:56:16;;;;;;;39.40;18.55;;;;;;;;;;5007188;28;20125;-65
2021/12/15 11:58:42;;;;;;;37.20;17.38;;;;;;;;;;5010320;28;20088;-65
2021/12/15 12:01:09;;;;;;;39.35;18.98;;;;;;;;;;5010610;28;20053;-65
2021/12/15 12:03:36;;;;;;;30.13;16.67;;;;;;;;;;5010315;28;20037;-65
2021/12/15 12:06:02;;;;;;;36.50;16.77;;;;;;;;;;5010138;28;20683;-65
2021/12/15 12:08:29;;;;;;;32.28;16.60;;;;;;;;;;5010991;28;20423;-65
2021/12/15 12:11:03;;;;;;;32.50;16.35;;;;;;;;;;5009196;28;20041;-65
2021/12/15 12:13:37;;;;;;;33.97;16.05;;;;;;;;;;5009083;28;20074;-65
2021/12/15 12:16:04;;;;;;;30.45;14.82;;;;;;;;;;4992186;28;20160;-65
2021/12/15 12:18:31;;;;;;;30.70;16.17;;;;;;;;;;5010189;28;20049;-65
2021/12/15 12:21:00;;;;;;;33.88;15.57;;;;;;;;;;5010250;28;20390;-65
2021/12/15 12:23:27;;;;;;;31.50;14.75;;;;;;;;;;5010380;28;20197;-65
2021/12/15 12:25:56;;;;;;;28.20;14.73;;;;;;;;;;5002934;28;20377;-65
2021/12/15 12:28:24;;;;;;;27.00;13.73;;;;;;;;;;5002753;28;20170;-65
2021/12/15 12:30:53;;;;;;;22.33;12.95;;;;;;;;;;5008631;28;20048;-64
2021/12/15 12:33:20;;;;;;;28.60;13.13;;;;;;;;;;4992870;28;20045;-65
2021/12/15 12:35:51;;;;;;;26.77;12.88;;;;;;;;;;5014062;28;20058;-64
2021/12/15 12:38:22;;;;;;;29.08;12.95;;;;;;;;;;5014021;28;20038;-65
2021/12/15 12:41:06;;;;;;;23.53;13.03;;;;;;;;;;5013222;28;20403;-64
2021/12/15 12:43:36;;;;;;;23.60;11.77;;;;;;;;;;5012977;28;20033;-65
2021/12/15 12:46:10;;;;;;;24.48;10.95;;;;;;;;;;5001445;28;20038;-64
2021/12/15 12:59:45;;;;;;;24.45;10.43;;;;;;;;;;5013438;28;20103;-65
2021/12/15 13:02:41;;;;;;;21.60;9.60;;;;;;;;;;4994177;28;20078;-65
2021/12/15 13:05:25;;;;;;;23.35;9.18;;;;;;;;;;5013285;28;20051;-65
2021/12/15 13:07:53;;;;;;;17.55;7.90;;;;;;;;;;5007555;28;20650;-65
2021/12/15 13:10:21;;;;;;;20.23;7.53;;;;;;;;;;5012910;28;20473;-65
2021/12/15 13:12:47;;;;;;;15.70;6.75;;;;;;;;;;5013410;28;20038;-65
2021/12/15 13:15:21;;;;;;;13.65;6.68;;;;;;;;;;5013266;28;20042;-65
2021/12/15 13:17:58;;;;;;;15.40;6.78;;;;;;;;;;5012627;28;20049;-65
2021/12/15 13:20:25;;;;;;;17.17;6.63;;;;;;;;;;5013714;28;20068;-65
2021/12/15 13:23:28;;;;;;;15.52;6.35;;;;;;;;;;5012295;28;20541;-65
2021/12/15 13:28:49;;;;;;;14.10;5.75;;;;;;;;;;5012895;28;20140;-64
2021/12/15 13:31:19;;;;;;;14.75;5.82;;;;;;;;;;5012765;28;20049;-65
2021/12/15 13:33:48;;;;;;;13.45;5.80;;;;;;;;;;5011224;28;20045;-64
2021/12/15 13:36:20;;;;;;;16.77;6.72;;;;;;;;;;5012943;28;20056;-64
2021/12/15 13:39:04;;;;;;;15.35;6.43;;;;;;;;;;5013056;28;20396;-65
2021/12/15 13:41:40;;;;;;;15.00;5.55;;;;;;;;;;5012331;28;20042;-65
2021/12/15 13:44:23;;;;;;;14.73;5.85;;;;;;;;;;4993000;28;20295;-65
2021/12/15 13:47:01;;;;;;;14.27;4.93;;;;;;;;;;5003629;28;20046;-65
2021/12/15 13:49:28;;;;;;;10.18;4.50;;;;;;;;;;5011212;28;20054;-64
2021/12/15 13:52:06;;;;;;;8.75;4.03;;;;;;;;;;5010115;28;20124;-65
2021/12/15 13:54:35;;;;;;;11.65;4.40;;;;;;;;;;5010974;28;20049;-64
2021/12/15 13:57:04;;;;;;;14.60;4.53;;;;;;;;;;5003727;28;20069;-64
2021/12/15 13:59:34;;;;;;;8.27;4.00;;;;;;;;;;5012503;28;20038;-65
2021/12/15 14:02:21;;;;;;;7.95;3.40;;;;;;;;;;5010658;28;20149;-65
2021/12/15 14:04:48;;;;;;;8.95;3.80;;;;;;;;;;4992606;28;20088;-65
2021/12/15 14:07:33;;;;;;;7.65;3.10;;;;;;;;;;4997361;28;20042;-65
2021/12/15 14:09:59;;;;;;;8.55;3.42;;;;;;;;;;5011683;28;20081;-65
2021/12/15 14:12:58;;;;;;;10.07;3.90;;;;;;;;;;5012324;28;20192;-66
2021/12/15 14:15:36;;;;;;;9.90;3.85;;;;;;;;;;4951192;28;20049;-65
2021/12/15 14:18:25;;;;;;;11.15;3.85;;;;;;;;;;5010425;28;20034;-66
2021/12/15 14:21:09;;;;;;;6.22;3.20;;;;;;;;;;5001008;28;20165;-67
2021/12/15 14:23:54;;;;;;;12.13;3.90;;;;;;;;;;5005031;28;20790;-65
2021/12/15 14:26:22;;;;;;;11.40;4.10;;;;;;;;;;5010854;28;20144;-65
2021/12/15 14:28:50;;;;;;;9.23;3.35;;;;;;;;;;5010875;28;20077;-65
2021/12/15 14:31:19;;;;;;;9.45;3.17;;;;;;;;;;5011131;28;20054;-65
2021/12/15 14:33:47;;;;;;;9.98;3.38;;;;;;;;;;5010535;28;20057;-65
2021/12/15 14:36:18;;;;;;;7.63;3.63;;;;;;;;;;4978235;28;20044;-65
2021/12/15 14:38:48;;;;;;;10.05;3.50;;;;;;;;;;5010878;28;20042;-65
2021/12/15 14:41:20;;;;;;;8.18;3.17;;;;;;;;;;5011487;28;20491;-65
2021/12/15 14:43:51;;;;;;;14.27;3.67;;;;;;;;;;4993155;28;20574;-65
2021/12/15 14:46:18;;;;;;;7.38;3.13;;;;;;;;;;5009893;28;20073;-65
2021/12/15 14:48:44;;;;;;;8.40;3.17;;;;;;;;;;4992357;28;20048;-66
2021/12/15 14:51:10;;;;;;;7.60;3.15;;;;;;;;;;5004504;28;20077;-66
2021/12/15 14:53:43;;;;;;;13.00;3.67;;;;;;;;;;5010915;28;20046;-65
2021/12/15 14:56:09;;;;;;;7.35;3.17;;;;;;;;;;5010279;28;20503;-66
2021/12/15 14:58:35;;;;;;;11.20;2.95;;;;;;;;;;5010655;28;20056;-66
2021/12/15 15:01:02;;;;;;;9.90;3.08;;;;;;;;;;5010051;28;20041;-65
2021/12/15 15:03:29;;;;;;;8.18;2.55;;;;;;;;;;5011059;28;20117;-65
2021/12/15 15:05:55;;;;;;;6.72;2.08;;;;;;;;;;5010623;28;20046;-64
2021/12/15 15:08:26;;;;;;;8.30;1.92;;;;;;;;;;5010229;28;20049;-64
2021/12/15 15:10:53;;;;;;;5.28;2.05;;;;;;;;;;5011363;28;20053;-65
2021/12/15 15:13:23;;;;;;;4.03;1.98;;;;;;;;;;5010720;28;20077;-65
2021/12/15 15:15:51;;;;;;;6.03;1.80;;;;;;;;;;5009560;28;20042;-65
2021/12/15 15:18:27;;;;;;;5.97;2.40;;;;;;;;;;5010949;28;20049;-66
2021/12/15 15:20:59;;;;;;;7.07;2.08;;;;;;;;;;5010546;28;20388;-66
2021/12/15 15:23:26;;;;;;;4.50;1.80;;;;;;;;;;5009777;28;20503;-66
2021/12/15 15:25:55;;;;;;;3.03;1.45;;;;;;;;;;5009886;28;20045;-66
2021/12/15 15:28:27;;;;;;;4.03;1.88;;;;;;;;;;4992838;28;20065;-67
2021/12/15 15:30:55;;;;;;;3.95;1.80;;;;;;;;;;5010385;28;20081;-67
2021/12/15 15:33:26;;;;;;;3.10;1.35;;;;;;;;;;5010979;28;20046;-67
2021/12/15 15:36:01;;;;;;;5.60;1.63;;;;;;;;;;4991374;28;20053;-67
2021/12/15 15:38:29;;;;;;;4.03;1.30;;;;;;;;;;5010531;28;20515;-67
2021/12/15 15:40:59;;;;;;;4.30;1.50;;;;;;;;;;5010929;28;20045;-67
2021/12/15 15:43:38;;;;;;;6.68;1.30;;;;;;;;;;5010991;28;20073;-68
2021/12/15 15:46:06;;;;;;;5.13;1.10;;;;;;;;;;5009449;28;20049;-67
2021/12/15 15:48:33;;;;;;;4.20;1.60;;;;;;;;;;5011174;28;20069;-67
2021/12/15 15:51:02;;;;;;;6.10;1.30;;;;;;;;;;5010780;28;20065;-67